Time;durP1;ratioP1;P1;durP2;ratioP2;P2;SDS_P1;SDS_P2;PMS_P1;PMS_P2;Temp;Humidity;BMP_temperature;BMP_pressure;BME280_temperature;BME280_humidity;BME280_pressure;Samples;Min_cycle;Max_cycle;Signal;HPM_P1;HPM_P2
2023/08/13 00:00:16;;;;;;;2.00;1.80;;;;;;;18.77;66.57;93963.25;513972;28;1097;-46
2023/08/13 00:00:31;;;;;;;2.03;1.83;;;;;;;18.77;66.49;93957.66;513956;28;877;-45
2023/08/13 00:00:46;;;;;;;1.70;1.60;;;;;;;18.76;66.21;93958.97;513846;28;1711;-45
2023/08/13 00:01:02;;;;;;;1.73;1.63;;;;;;;18.74;66.40;93962.38;513387;28;1002;-45
2023/08/13 00:01:17;;;;;;;1.70;1.60;;;;;;;18.76;66.14;93958.97;514053;28;802;-44
2023/08/13 00:01:32;;;;;;;1.87;1.77;;;;;;;18.76;66.14;93959.72;513606;28;1270;-44
2023/08/13 00:01:48;;;;;;;2.20;1.77;;;;;;;18.76;66.21;93956.19;514077;28;767;-45
2023/08/13 00:02:03;;;;;;;2.00;1.70;;;;;;;18.77;66.25;93963.25;513954;28;781;-46
2023/08/13 00:02:19;;;;;;;1.80;1.70;;;;;;;18.76;66.34;93958.97;514076;28;815;-45
2023/08/13 00:02:35;;;;;;;1.67;1.57;;;;;;;18.76;66.22;93962.53;514049;28;1497;-44
2023/08/13 00:02:50;;;;;;;1.40;1.30;;;;;;;18.76;66.42;93967.38;513856;28;1072;-45
2023/08/13 00:03:05;;;;;;;1.60;1.50;;;;;;;18.75;66.29;93961.03;514026;28;843;-45
2023/08/13 00:03:21;;;;;;;1.87;1.77;;;;;;;18.72;66.18;93964.28;513875;28;872;-44
2023/08/13 00:03:36;;;;;;;2.20;1.77;;;;;;;18.75;66.43;93963.13;514130;28;809;-45
2023/08/13 00:03:52;;;;;;;3.17;1.70;;;;;;;18.73;66.36;93960.91;513992;28;826;-44
2023/08/13 00:04:07;;;;;;;3.03;1.60;;;;;;;18.73;66.45;93962.97;512811;28;1651;-45
2023/08/13 00:04:23;;;;;;;2.17;1.58;;;;;;;18.72;66.23;93958.69;513528;28;1036;-45
2023/08/13 00:04:38;;;;;;;2.10;1.58;;;;;;;18.72;66.47;93959.44;513933;28;1052;-45
2023/08/13 00:04:54;;;;;;;2.00;1.67;;;;;;;18.72;66.43;93964.28;513997;28;807;-45
2023/08/13 00:05:09;;;;;;;2.00;1.67;;;;;;;18.72;66.44;93969.88;513979;28;930;-45
2023/08/13 00:05:25;;;;;;;2.17;1.65;;;;;;;18.69;66.35;93957.09;513960;28;782;-46
2023/08/13 00:05:40;;;;;;;1.98;1.60;;;;;;;18.71;66.28;93954.44;513891;28;1142;-44
2023/08/13 00:05:56;;;;;;;1.58;1.48;;;;;;;18.70;66.17;93958.56;514095;28;778;-45
2023/08/13 00:06:11;;;;;;;1.60;1.50;;;;;;;18.70;66.36;93972.53;512796;28;773;-44
2023/08/13 00:06:27;;;;;;;1.83;1.60;;;;;;;18.60;66.40;93938.97;512796;28;1100;-45
2023/08/13 00:06:42;;;;;;;2.22;1.70;;;;;;;18.69;66.46;93959.88;512777;28;1789;-44
2023/08/13 00:06:59;;;;;;;2.20;1.80;;;;;;;18.67;66.33;93956.91;512707;28;884;-45
2023/08/13 00:07:14;;;;;;;2.10;1.90;;;;;;;18.69;66.55;93959.88;511311;28;1927;-46
2023/08/13 00:07:30;;;;;;;2.08;1.88;;;;;;;18.68;66.59;93953.56;511597;29;1302;-45
2023/08/13 00:07:45;;;;;;;1.73;1.63;;;;;;;18.68;66.72;93961.94;511717;28;829;-45
2023/08/13 00:08:00;;;;;;;1.73;1.63;;;;;;;18.67;66.86;93957.66;511662;29;892;-45
2023/08/13 00:08:16;;;;;;;1.90;1.80;;;;;;;18.67;67.02;93959.72;511693;28;1189;-44
2023/08/13 00:08:31;;;;;;;1.90;1.80;;;;;;;18.66;67.10;93953.41;512091;28;888;-45
2023/08/13 00:08:47;;;;;;;2.00;1.80;;;;;;;18.66;67.25;93956.22;513643;28;1044;-46
2023/08/13 00:09:02;;;;;;;2.05;1.75;;;;;;;18.66;67.12;93959.00;513778;28;778;-45
2023/08/13 00:09:17;;;;;;;1.70;1.60;;;;;;;18.65;67.16;93960.31;513782;28;816;-45
2023/08/13 00:09:33;;;;;;;3.53;1.57;;;;;;;18.66;67.42;93959.00;513892;28;907;-45
2023/08/13 00:09:48;;;;;;;3.65;1.65;;;;;;;18.65;67.44;93963.13;513876;28;833;-45
2023/08/13 00:10:04;;;;;;;1.90;1.70;;;;;;;18.65;67.38;93960.31;515213;28;893;-45
2023/08/13 00:10:19;;;;;;;1.95;1.75;;;;;;;18.64;67.40;93958.13;513528;28;1430;-44
2023/08/13 00:10:35;;;;;;;1.93;1.80;;;;;;;18.64;67.41;93953.25;512973;28;1977;-44
2023/08/13 00:10:50;;;;;;;1.77;1.67;;;;;;;18.65;67.40;93959.56;512079;28;782;-45
2023/08/13 00:11:11;;;;;;;1.85;1.40;;;;;;;18.64;67.34;93958.13;514002;28;1622;-44
2023/08/13 00:11:26;;;;;;;2.42;1.70;;;;;;;18.65;67.31;93956.78;513939;28;829;-45
2023/08/13 00:11:42;;;;;;;1.70;1.60;;;;;;;18.63;67.25;93957.38;513984;28;866;-45
2023/08/13 00:11:57;;;;;;;2.17;1.63;;;;;;;18.62;67.42;93953.13;513953;28;1112;-45
2023/08/13 00:12:12;;;;;;;2.25;1.70;;;;;;;18.63;67.39;93951.03;514043;28;805;-46
2023/08/13 00:12:28;;;;;;;1.90;1.70;;;;;;;18.62;67.36;93961.50;513998;28;825;-46
2023/08/13 00:12:43;;;;;;;1.90;1.73;;;;;;;18.61;67.36;93954.44;514008;28;821;-44
2023/08/13 00:12:59;;;;;;;1.83;1.70;;;;;;;18.62;67.44;93955.91;513987;28;777;-44
2023/08/13 00:13:14;;;;;;;2.00;1.80;;;;;;;18.61;67.45;93957.22;513968;28;844;-46
2023/08/13 00:13:30;;;;;;;1.85;1.70;;;;;;;18.59;67.32;93956.34;513942;28;1182;-46
2023/08/13 00:13:45;;;;;;;2.30;1.60;;;;;;;18.60;67.54;93955.03;514082;28;848;-46
2023/08/13 00:14:01;;;;;;;2.30;1.60;;;;;;;18.60;67.64;93963.44;512861;28;2048;-46
2023/08/13 00:14:16;;;;;;;1.70;1.60;;;;;;;18.60;67.64;93955.03;512671;28;880;-44
2023/08/13 00:14:32;;;;;;;1.67;1.57;;;;;;;18.55;67.66;93956.06;513188;28;1392;-45
2023/08/13 00:14:47;;;;;;;1.70;1.60;;;;;;;18.58;67.75;93955.59;513239;28;1222;-44
2023/08/13 00:15:03;;;;;;;2.07;1.63;;;;;;;18.59;67.54;93961.94;513520;28;863;-45
2023/08/13 00:15:18;;;;;;;1.63;1.52;;;;;;;18.59;67.64;93962.69;513973;28;836;-45
2023/08/13 00:15:33;;;;;;;1.60;1.50;;;;;;;18.59;67.73;93961.94;513926;28;872;-45
2023/08/13 00:15:49;;;;;;;1.67;1.47;;;;;;;18.58;67.75;93966.06;513990;28;900;-44
2023/08/13 00:16:05;;;;;;;2.13;1.67;;;;;;;18.52;67.69;93951.63;513963;28;836;-46
2023/08/13 00:16:21;;;;;;;1.98;1.80;;;;;;;18.57;67.72;93965.34;513827;28;1027;-45
2023/08/13 00:16:36;;;;;;;1.60;1.50;;;;;;;18.57;67.95;93962.53;513746;28;1675;-44
2023/08/13 00:16:52;;;;;;;1.60;1.50;;;;;;;18.57;67.88;93965.34;512820;28;813;-45
2023/08/13 00:17:08;;;;;;;1.65;1.55;;;;;;;18.56;67.80;93955.47;515783;28;1058;-45
2023/08/13 00:17:23;;;;;;;1.60;1.50;;;;;;;18.55;67.85;93961.66;515774;28;898;-45
2023/08/13 00:17:39;;;;;;;2.03;1.87;;;;;;;18.54;67.87;93954.56;515904;28;836;-44
2023/08/13 00:17:54;;;;;;;2.10;1.90;;;;;;;18.54;68.04;93957.38;515759;28;1071;-44
2023/08/13 00:18:10;;;;;;;1.80;1.70;;;;;;;18.53;68.11;93959.44;515809;28;1034;-44
2023/08/13 00:18:27;;;;;;;1.80;1.70;;;;;;;18.53;68.03;93959.44;515767;28;906;-45
2023/08/13 00:18:43;;;;;;;1.80;1.70;;;;;;;18.54;68.16;93960.16;515631;28;1148;-44
2023/08/13 00:18:58;;;;;;;1.73;1.63;;;;;;;18.52;68.22;93960.75;515166;28;824;-47
2023/08/13 00:19:14;;;;;;;1.73;1.63;;;;;;;18.51;68.37;93952.97;513921;28;834;-44
2023/08/13 00:19:30;;;;;;;1.70;1.60;;;;;;;18.51;68.28;93962.09;513029;28;1755;-45
2023/08/13 00:19:45;;;;;;;1.80;1.70;;;;;;;18.50;68.23;93957.81;512236;28;766;-44
2023/08/13 00:20:00;;;;;;;1.92;1.73;;;;;;;18.50;68.20;93962.66;513185;28;1575;-44
2023/08/13 00:20:16;;;;;;;1.75;1.65;;;;;;;18.46;68.00;93959.59;513975;28;844;-45
2023/08/13 00:20:31;;;;;;;1.83;1.73;;;;;;;18.48;68.03;93963.28;513979;28;805;-44
2023/08/13 00:20:47;;;;;;;2.25;1.92;;;;;;;18.48;68.17;93954.88;513980;28;1627;-46
2023/08/13 00:21:02;;;;;;;2.43;1.73;;;;;;;18.49;68.33;93953.56;513478;28;834;-45
2023/08/13 00:21:18;;;;;;;1.95;1.67;;;;;;;18.48;68.32;93951.34;513904;28;892;-46
2023/08/13 00:21:35;;;;;;;2.17;1.80;;;;;;;18.41;68.16;93949.41;513943;28;816;-44
2023/08/13 00:21:50;;;;;;;2.80;1.75;;;;;;;18.46;68.13;93957.53;513966;28;904;-45
2023/08/13 00:22:06;;;;;;;2.20;1.80;;;;;;;18.46;68.20;93956.78;513131;28;1592;-46
2023/08/13 00:22:21;;;;;;;2.08;1.80;;;;;;;18.44;68.14;93953.81;513084;28;1117;-47
2023/08/13 00:22:37;;;;;;;1.80;1.70;;;;;;;18.44;68.20;93956.63;514013;28;794;-45
2023/08/13 00:22:52;;;;;;;1.87;1.77;;;;;;;18.43;68.05;93958.66;513946;28;848;-47
2023/08/13 00:23:08;;;;;;;1.70;1.60;;;;;;;18.41;67.97;93958.53;514027;28;833;-44
2023/08/13 00:23:23;;;;;;;1.60;1.50;;;;;;;18.41;68.22;93952.22;513845;28;877;-45
2023/08/13 00:23:39;;;;;;;2.40;1.63;;;;;;;18.41;67.99;93958.53;513529;28;1307;-45
2023/08/13 00:23:54;;;;;;;2.20;1.48;;;;;;;18.39;67.94;93957.63;513422;28;1333;-44
2023/08/13 00:24:09;;;;;;;1.50;1.40;;;;;;;18.40;68.32;93957.06;513920;28;931;-44
2023/08/13 00:24:25;;;;;;;1.80;1.70;;;;;;;18.40;68.58;93956.31;513973;28;833;-44
2023/08/13 00:24:40;;;;;;;1.98;1.88;;;;;;;18.40;68.25;93959.13;513467;28;1758;-44
2023/08/13 00:24:56;;;;;;;2.10;1.90;;;;;;;18.38;68.16;93956.19;514020;28;789;-45
2023/08/13 00:25:11;;;;;;;1.85;1.75;;;;;;;18.37;68.22;93955.44;513542;28;960;-45
2023/08/13 00:25:26;;;;;;;1.63;1.53;;;;;;;18.34;68.25;93953.09;511917;28;1048;-46
2023/08/13 00:25:42;;;;;;;1.80;1.70;;;;;;;18.36;68.39;93956.03;509787;29;849;-46
2023/08/13 00:25:57;;;;;;;1.70;1.60;;;;;;;18.33;68.13;93957.19;511532;28;847;-46
2023/08/13 00:26:13;;;;;;;1.80;1.60;;;;;;;18.33;68.35;93954.41;513828;28;896;-45
2023/08/13 00:26:28;;;;;;;2.13;1.93;;;;;;;18.32;68.55;93947.34;513790;28;825;-44
2023/08/13 00:26:43;;;;;;;2.38;2.17;;;;;;;18.30;68.63;93956.31;512243;28;1100;-45
2023/08/13 00:26:59;;;;;;;2.10;1.90;;;;;;;18.30;68.56;93952.81;511995;28;794;-45
2023/08/13 00:27:14;;;;;;;1.95;1.70;;;;;;;18.29;68.43;93952.06;513827;28;770;-44
2023/08/13 00:27:30;;;;;;;3.17;2.00;;;;;;;18.29;68.46;93956.91;513856;28;829;-44
2023/08/13 00:27:45;;;;;;;2.77;2.00;;;;;;;18.28;68.67;93955.44;513897;28;1786;-45
2023/08/13 00:28:00;;;;;;;1.75;1.65;;;;;;;18.27;68.59;93953.97;513444;28;1837;-46
2023/08/13 00:28:16;;;;;;;1.90;1.70;;;;;;;18.26;68.36;93949.72;512516;28;1119;-44
2023/08/13 00:28:31;;;;;;;2.23;1.73;;;;;;;18.25;68.43;93951.03;513936;28;840;-45
2023/08/13 00:28:47;;;;;;;2.25;2.05;;;;;;;18.23;68.62;93954.41;513929;28;861;-45
2023/08/13 00:29:04;;;;;;;1.85;1.75;;;;;;;18.23;68.60;93953.66;513863;28;892;-44
2023/08/13 00:29:19;;;;;;;1.50;1.40;;;;;;;18.22;68.65;93954.97;513898;28;835;-48
2023/08/13 00:29:37;;;;;;;1.60;1.50;;;;;;;18.21;68.58;93961.91;514011;28;856;-45
2023/08/13 00:29:53;;;;;;;1.63;1.52;;;;;;;18.19;68.57;93960.41;513836;28;1099;-44
2023/08/13 00:30:09;;;;;;;1.77;1.67;;;;;;;18.17;68.57;93953.94;513734;28;2497;-45
2023/08/13 00:30:25;;;;;;;1.73;1.60;;;;;;;18.16;68.56;93955.28;513780;28;1591;-45
2023/08/13 00:30:40;;;;;;;2.20;1.57;;;;;;;18.15;68.86;93951.00;513645;28;1981;-46
2023/08/13 00:30:55;;;;;;;2.03;1.70;;;;;;;18.14;68.85;93955.13;513838;28;928;-45
2023/08/13 00:31:11;;;;;;;1.85;1.75;;;;;;;18.14;68.82;93949.53;513749;28;882;-45
2023/08/13 00:31:26;;;;;;;1.70;1.60;;;;;;;18.12;68.82;93958.53;513748;28;1143;-44
2023/08/13 00:31:41;;;;;;;1.83;1.73;;;;;;;18.12;68.67;93960.56;513124;28;1705;-45
2023/08/13 00:31:57;;;;;;;2.00;1.90;;;;;;;18.12;68.71;93958.53;512871;28;832;-44
2023/08/13 00:32:12;;;;;;;1.90;1.80;;;;;;;18.11;68.91;93962.63;513123;28;868;-45
2023/08/13 00:32:28;;;;;;;1.90;1.80;;;;;;;18.07;69.01;93947.63;512053;28;801;-44
2023/08/13 00:32:43;;;;;;;1.83;1.70;;;;;;;18.10;68.86;93955.56;512338;28;1028;-44
2023/08/13 00:32:58;;;;;;;1.93;1.80;;;;;;;18.08;68.69;93955.41;513976;28;789;-44
2023/08/13 00:33:14;;;;;;;1.97;1.80;;;;;;;18.05;68.64;93951.00;513889;28;943;-45
2023/08/13 00:33:29;;;;;;;1.75;1.65;;;;;;;18.07;68.56;93945.56;513773;28;981;-45
2023/08/13 00:33:44;;;;;;;1.77;1.67;;;;;;;18.08;68.54;93955.41;513844;28;817;-44
2023/08/13 00:34:00;;;;;;;1.80;1.70;;;;;;;18.08;68.56;93957.47;513787;28;801;-45
2023/08/13 00:34:15;;;;;;;1.90;1.70;;;;;;;18.07;68.43;93956.00;513780;28;1092;-44
2023/08/13 00:34:31;;;;;;;2.33;1.60;;;;;;;18.01;68.49;93949.97;513740;28;884;-44
2023/08/13 00:34:46;;;;;;;2.07;1.60;;;;;;;18.06;68.63;93954.53;513333;28;1774;-45
2023/08/13 00:35:02;;;;;;;2.05;1.75;;;;;;;18.02;68.63;93943.03;513112;28;865;-45
2023/08/13 00:35:17;;;;;;;2.40;1.90;;;;;;;18.06;68.71;93955.25;513702;28;1070;-44
2023/08/13 00:35:32;;;;;;;2.47;1.92;;;;;;;18.06;68.74;93951.75;513866;28;880;-46
2023/08/13 00:35:50;;;;;;;1.87;1.70;;;;;;;18.06;68.50;93951.75;513916;28;1063;-46
2023/08/13 00:36:06;;;;;;;1.77;1.60;;;;;;;18.06;68.69;93958.03;513951;28;947;-45
2023/08/13 00:36:21;;;;;;;2.30;2.00;;;;;;;18.05;68.78;93956.59;513860;28;880;-45
2023/08/13 00:36:37;;;;;;;3.53;2.00;;;;;;;18.05;68.71;93956.59;513954;28;856;-45
2023/08/13 00:36:52;;;;;;;3.20;1.90;;;;;;;18.05;68.53;93951.00;513939;28;789;-44
2023/08/13 00:37:08;;;;;;;2.00;1.80;;;;;;;18.03;68.74;93952.91;513947;28;1135;-45
2023/08/13 00:37:23;;;;;;;2.00;1.90;;;;;;;18.03;68.85;93953.66;513826;28;1186;-45
2023/08/13 00:37:39;;;;;;;2.00;1.80;;;;;;;18.03;68.81;93961.28;513991;28;845;-45
2023/08/13 00:37:54;;;;;;;2.30;1.90;;;;;;;18.04;68.85;93957.19;513597;28;1294;-44
2023/08/13 00:38:09;;;;;;;2.20;2.00;;;;;;;18.03;68.94;93958.50;513816;28;877;-45
2023/08/13 00:38:25;;;;;;;2.17;1.98;;;;;;;18.05;68.86;93959.38;513812;28;1467;-46
2023/08/13 00:38:40;;;;;;;2.03;1.90;;;;;;;18.05;68.71;93956.59;513470;28;1727;-44
2023/08/13 00:38:56;;;;;;;2.08;1.90;;;;;;;18.06;68.66;93958.03;513605;28;1159;-45
2023/08/13 00:39:12;;;;;;;2.10;1.90;;;;;;;18.06;68.46;93958.03;513713;28;853;-45
2023/08/13 00:39:27;;;;;;;2.10;1.90;;;;;;;18.05;68.58;93959.38;513737;28;837;-47
2023/08/13 00:39:43;;;;;;;1.93;1.80;;;;;;;18.06;68.53;93958.03;513436;28;892;-46
2023/08/13 00:39:58;;;;;;;1.85;1.75;;;;;;;18.02;68.56;93952.16;512523;28;762;-45
2023/08/13 00:40:13;;;;;;;2.03;1.83;;;;;;;18.05;68.47;93951.00;513901;28;965;-45
2023/08/13 00:40:29;;;;;;;2.10;1.73;;;;;;;18.06;68.50;93958.03;513966;28;758;-44
2023/08/13 00:40:44;;;;;;;2.05;1.60;;;;;;;18.07;68.31;93958.78;513952;28;831;-44
2023/08/13 00:40:59;;;;;;;2.17;1.53;;;;;;;18.06;68.33;93957.34;513946;28;1024;-45
2023/08/13 00:41:15;;;;;;;2.50;1.60;;;;;;;18.04;68.36;93954.38;513859;28;1151;-46
2023/08/13 00:41:30;;;;;;;2.05;1.63;;;;;;;18.06;68.22;93957.34;514010;28;786;-45
2023/08/13 00:41:46;;;;;;;2.03;1.83;;;;;;;18.03;68.10;93955.69;513201;28;1719;-44
2023/08/13 00:42:01;;;;;;;2.10;1.90;;;;;;;18.04;67.96;93954.38;513619;28;811;-45
2023/08/13 00:42:16;;;;;;;2.10;1.90;;;;;;;18.04;68.17;93952.31;513950;28;928;-45
2023/08/13 00:42:33;;;;;;;2.00;1.80;;;;;;;18.03;68.16;93952.91;513925;28;982;-45
2023/08/13 00:42:48;;;;;;;1.70;1.50;;;;;;;18.01;68.15;93959.09;512746;28;841;-45
2023/08/13 00:43:04;;;;;;;1.70;1.60;;;;;;;18.01;68.17;93955.56;513371;28;789;-45
2023/08/13 00:43:19;;;;;;;1.60;1.50;;;;;;;18.00;68.12;93954.06;513808;28;1135;-45
2023/08/13 00:43:39;;;;;;;1.73;1.63;;;;;;;17.98;68.11;93957.47;513918;28;1199;-44
2023/08/13 00:43:54;;;;;;;2.17;1.98;;;;;;;17.98;68.17;93954.66;513853;28;851;-46
2023/08/13 00:44:09;;;;;;;2.28;2.00;;;;;;;17.97;68.28;93958.03;513958;28;864;-45
2023/08/13 00:44:25;;;;;;;2.03;1.83;;;;;;;17.96;68.28;93950.97;513695;28;880;-45
2023/08/13 00:44:40;;;;;;;1.90;1.80;;;;;;;17.96;68.22;93954.50;513199;28;1684;-43
2023/08/13 00:44:56;;;;;;;1.85;1.75;;;;;;;17.95;67.99;93953.03;513460;28;1087;-44
2023/08/13 00:45:11;;;;;;;1.90;1.80;;;;;;;17.94;68.28;93951.56;513627;28;841;-45
2023/08/13 00:45:26;;;;;;;2.10;1.90;;;;;;;17.93;68.28;93955.66;511888;28;882;-45
2023/08/13 00:45:42;;;;;;;2.00;1.80;;;;;;;17.92;68.11;93959.81;511728;28;841;-44
2023/08/13 00:45:58;;;;;;;1.63;1.52;;;;;;;17.91;68.07;93947.16;513720;28;934;-44
2023/08/13 00:46:13;;;;;;;1.60;1.50;;;;;;;17.90;68.30;93954.06;513733;28;1168;-46
2023/08/13 00:46:29;;;;;;;1.92;1.77;;;;;;;17.90;68.28;93947.72;511826;29;809;-44
2023/08/13 00:46:45;;;;;;;2.03;1.87;;;;;;;17.88;68.17;93950.38;511697;29;833;-46
2023/08/13 00:47:01;;;;;;;2.28;2.08;;;;;;;17.87;68.24;93949.63;511669;29;814;-45
2023/08/13 00:47:16;;;;;;;2.10;1.73;;;;;;;17.87;68.18;93952.44;511713;29;939;-44
2023/08/13 00:47:31;;;;;;;1.73;1.60;;;;;;;17.85;68.22;93957.88;512135;28;923;-44
2023/08/13 00:47:47;;;;;;;1.85;1.75;;;;;;;17.85;68.04;93949.50;513769;28;1194;-44
2023/08/13 00:48:04;;;;;;;2.00;1.80;;;;;;;17.83;68.26;93954.19;513286;28;1537;-44
2023/08/13 00:48:20;;;;;;;1.65;1.55;;;;;;;17.82;68.25;93950.66;511435;28;942;-44
2023/08/13 00:48:39;;;;;;;1.70;1.60;;;;;;;17.81;68.24;93954.78;512157;28;986;-45
2023/08/13 00:48:57;;;;;;;2.47;1.83;;;;;;;17.81;68.41;93954.03;511746;29;1673;-45
2023/08/13 00:49:13;;;;;;;4.32;2.15;;;;;;;17.80;68.38;93958.16;511645;29;1091;-45
2023/08/13 00:49:29;;;;;;;1.90;1.80;;;;;;;17.80;68.40;93955.38;511794;29;1102;-44
2023/08/13 00:49:44;;;;;;;1.85;1.75;;;;;;;17.79;68.50;93948.28;511698;29;871;-45
2023/08/13 00:50:00;;;;;;;1.73;1.63;;;;;;;17.79;68.67;93960.22;511690;29;861;-45
2023/08/13 00:50:16;;;;;;;1.70;1.60;;;;;;;17.80;68.51;93958.16;512990;28;811;-44
2023/08/13 00:50:31;;;;;;;2.00;1.80;;;;;;;17.79;68.54;93957.41;513572;28;1907;-45
2023/08/13 00:50:47;;;;;;;2.00;1.80;;;;;;;17.80;68.79;93958.88;513374;28;1683;-44
2023/08/13 00:51:03;;;;;;;1.80;1.70;;;;;;;17.80;68.92;93947.00;511684;28;807;-45
2023/08/13 00:51:22;;;;;;;1.88;1.77;;;;;;;17.80;68.80;93953.28;508818;29;1277;-45
2023/08/13 00:51:37;;;;;;;2.20;1.88;;;;;;;17.79;68.61;93956.66;508812;29;885;-45
2023/08/13 00:51:53;;;;;;;2.20;1.97;;;;;;;17.79;69.00;93953.88;510853;29;864;-44
2023/08/13 00:52:08;;;;;;;1.90;1.80;;;;;;;17.78;69.04;93955.22;511681;29;1077;-46
2023/08/13 00:52:24;;;;;;;1.83;1.73;;;;;;;17.77;68.72;93948.88;511681;29;1100;-44
2023/08/13 00:52:39;;;;;;;1.70;1.60;;;;;;;17.72;68.75;93947.09;509725;29;850;-45
2023/08/13 00:52:55;;;;;;;2.05;1.63;;;;;;;17.77;68.79;93953.72;510593;29;876;-44
2023/08/13 00:53:10;;;;;;;3.10;1.60;;;;;;;17.77;68.86;93953.72;512559;28;877;-45
2023/08/13 00:53:27;;;;;;;2.53;1.70;;;;;;;17.70;68.64;93949.00;513750;28;840;-46
2023/08/13 00:53:46;;;;;;;2.50;1.90;;;;;;;17.75;68.67;93951.53;513681;28;853;-46
2023/08/13 00:54:01;;;;;;;2.47;2.00;;;;;;;17.66;68.63;93938.28;513138;28;827;-44
2023/08/13 00:54:17;;;;;;;1.77;1.67;;;;;;;17.75;68.79;93956.38;513853;28;865;-44
2023/08/13 00:54:32;;;;;;;1.73;1.63;;;;;;;17.74;68.67;93952.84;511860;28;1324;-44
2023/08/13 00:54:48;;;;;;;1.85;1.63;;;;;;;17.74;68.63;93952.84;510559;29;1684;-46
2023/08/13 00:55:04;;;;;;;1.77;1.50;;;;;;;17.74;68.54;93947.25;511732;28;927;-45
2023/08/13 00:55:19;;;;;;;1.73;1.63;;;;;;;17.74;68.61;93950.03;510830;28;839;-44
2023/08/13 00:55:35;;;;;;;1.70;1.60;;;;;;;17.74;68.47;93952.84;511822;28;852;-45
2023/08/13 00:55:50;;;;;;;1.63;1.52;;;;;;;17.74;68.49;93952.09;511684;28;1755;-44
2023/08/13 00:56:05;;;;;;;1.90;1.80;;;;;;;17.69;68.48;93953.88;511696;28;1039;-45
2023/08/13 00:56:22;;;;;;;1.88;1.77;;;;;;;17.73;68.33;93953.44;510033;29;912;-45
2023/08/13 00:56:38;;;;;;;1.90;1.80;;;;;;;17.72;68.47;93952.69;512088;28;896;-44
2023/08/13 00:56:53;;;;;;;2.10;1.90;;;;;;;17.72;68.32;93957.53;511680;29;924;-45
2023/08/13 00:57:09;;;;;;;1.80;1.70;;;;;;;17.72;68.45;93954.75;511684;29;908;-45
2023/08/13 00:57:25;;;;;;;1.70;1.60;;;;;;;17.73;68.38;93959.00;509287;29;1864;-44
2023/08/13 00:57:40;;;;;;;1.80;1.70;;;;;;;17.70;68.31;93944.16;509496;29;1064;-46
2023/08/13 00:57:56;;;;;;;2.10;1.90;;;;;;;17.72;68.53;93946.34;509440;29;805;-46
2023/08/13 00:58:12;;;;;;;1.98;1.70;;;;;;;17.71;68.60;93951.22;508338;29;857;-45
2023/08/13 00:58:27;;;;;;;1.67;1.55;;;;;;;17.70;68.60;93952.53;509806;29;810;-46
2023/08/13 00:58:43;;;;;;;1.90;1.80;;;;;;;17.69;68.52;93947.53;509665;29;881;-44
2023/08/13 00:58:58;;;;;;;1.90;1.80;;;;;;;17.70;68.36;93946.22;509688;29;1049;-45
2023/08/13 00:59:14;;;;;;;1.80;1.70;;;;;;;17.69;68.47;93947.53;509713;29;869;-45
2023/08/13 00:59:30;;;;;;;2.20;2.00;;;;;;;17.68;68.53;93946.81;510499;28;834;-45
2023/08/13 00:59:47;;;;;;;2.17;2.03;;;;;;;17.69;68.55;93944.75;511788;29;896;-45
2023/08/13 01:00:06;;;;;;;1.92;1.80;;;;;;;17.67;68.42;93950.19;512417;28;1583;-46
2023/08/13 01:00:21;;;;;;;2.00;1.80;;;;;;;17.67;68.64;93947.41;513553;28;902;-45
2023/08/13 01:00:38;;;;;;;1.73;1.63;;;;;;;17.67;68.55;93948.09;513624;28;1320;-44
2023/08/13 01:00:53;;;;;;;1.88;1.70;;;;;;;17.67;68.58;93944.59;513768;28;888;-45
2023/08/13 01:01:09;;;;;;;2.00;1.80;;;;;;;17.67;68.42;93945.31;513742;28;845;-45
2023/08/13 01:01:25;;;;;;;1.98;1.70;;;;;;;17.66;68.42;93948.69;513764;28;812;-45
2023/08/13 01:01:42;;;;;;;1.80;1.60;;;;;;;17.60;68.51;93934.28;513775;28;945;-45
2023/08/13 01:01:57;;;;;;;1.88;1.77;;;;;;;17.66;68.58;93954.28;513432;28;1667;-44
2023/08/13 01:02:12;;;;;;;2.00;1.90;;;;;;;17.65;68.36;93947.25;512846;28;1107;-45
2023/08/13 01:02:28;;;;;;;1.83;1.73;;;;;;;17.64;68.37;93949.28;512679;28;983;-45
2023/08/13 01:02:44;;;;;;;1.70;1.60;;;;;;;17.62;68.48;93934.44;513831;28;889;-45
2023/08/13 01:02:59;;;;;;;1.80;1.70;;;;;;;17.63;68.63;93936.63;513910;28;816;-45
2023/08/13 01:03:15;;;;;;;1.90;1.80;;;;;;;17.62;68.48;93948.41;513790;28;791;-45
2023/08/13 01:03:30;;;;;;;1.90;1.80;;;;;;;17.62;68.42;93948.41;513824;28;886;-45
2023/08/13 01:03:45;;;;;;;2.10;1.90;;;;;;;17.61;68.65;93944.13;513907;28;898;-45
2023/08/13 01:04:01;;;;;;;2.10;1.90;;;;;;;17.61;68.53;93947.66;513733;28;864;-45
2023/08/13 01:04:16;;;;;;;2.10;1.90;;;;;;;17.61;68.90;93944.13;513777;28;833;-45
2023/08/13 01:04:32;;;;;;;1.90;1.80;;;;;;;17.61;68.67;93944.13;513787;28;821;-45
2023/08/13 01:04:47;;;;;;;1.77;1.67;;;;;;;17.60;68.68;93945.44;513032;28;1723;-44
2023/08/13 01:05:05;;;;;;;1.60;1.50;;;;;;;17.60;68.67;93942.66;513171;28;1052;-46
2023/08/13 01:05:24;;;;;;;1.60;1.50;;;;;;;17.56;68.60;93937.53;513682;28;815;-45
2023/08/13 01:05:51;;;;;;;2.38;1.73;;;;;;;17.58;68.85;93940.47;513403;28;1368;-47
2023/08/13 01:06:19;;;;;;;3.03;1.80;;;;;;;17.58;68.84;93948.84;511713;28;2460;-45
2023/08/13 01:07:06;;;;;;;1.77;1.67;;;;;;;17.57;68.73;93947.34;510818;29;1164;-45
2023/08/13 01:07:45;;;;;;;1.80;1.70;;;;;;;17.58;68.52;93940.47;507067;29;1864;-44
2023/08/13 01:09:02;;;;;;;2.00;1.80;;;;;;;17.57;68.60;93941.78;509474;29;1172;-45
2023/08/13 01:09:30;;;;;;;2.08;1.92;;;;;;;17.56;68.50;93943.09;501742;29;960;-45
2023/08/13 01:09:54;;;;;;;1.92;1.63;;;;;;;17.55;68.25;93938.06;505783;29;823;-44
2023/08/13 01:10:15;;;;;;;2.20;1.90;;;;;;;17.52;68.33;93936.47;504259;29;1798;-44
2023/08/13 01:10:33;;;;;;;1.92;1.77;;;;;;;17.54;68.34;93942.22;503688;29;1927;-44
2023/08/13 01:10:57;;;;;;;1.80;1.70;;;;;;;17.52;68.52;93944.84;501821;29;877;-44
2023/08/13 01:11:14;;;;;;;2.00;1.80;;;;;;;17.52;68.78;93939.25;503497;29;1189;-44
2023/08/13 01:11:32;;;;;;;1.88;1.67;;;;;;;17.51;68.84;93937.78;501913;29;837;-44
2023/08/13 01:12:06;;;;;;;1.63;1.52;;;;;;;17.51;68.97;93943.34;502010;29;1273;-45
2023/08/13 01:12:24;;;;;;;2.05;1.85;;;;;;;17.49;68.96;93935.53;510278;29;811;-45
2023/08/13 01:13:04;;;;;;;2.10;1.90;;;;;;;17.49;69.10;93943.19;511567;28;1064;-44
2023/08/13 01:13:27;;;;;;;2.20;1.90;;;;;;;17.48;69.09;93947.31;511583;28;1712;-46
2023/08/13 01:14:03;;;;;;;1.98;1.75;;;;;;;17.46;69.13;93933.91;511630;28;830;-44
2023/08/13 01:14:40;;;;;;;2.28;2.08;;;;;;;17.43;68.91;93937.88;511632;28;1219;-44
2023/08/13 01:15:03;;;;;;;2.20;2.00;;;;;;;17.42;68.85;93941.97;513640;28;1262;-45
2023/08/13 01:15:33;;;;;;;3.28;2.05;;;;;;;17.42;68.96;93947.56;513536;28;934;-46
2023/08/13 01:15:51;;;;;;;3.95;1.70;;;;;;;17.22;69.23;93918.09;513627;28;837;-44
2023/08/13 01:16:08;;;;;;;3.10;1.90;;;;;;;17.40;69.24;93941.81;512446;28;1021;-45
2023/08/13 01:16:23;;;;;;;1.90;1.80;;;;;;;17.40;69.08;93941.81;513593;28;1298;-45
2023/08/13 01:16:42;;;;;;;1.80;1.60;;;;;;;17.40;69.16;93933.44;513718;28;784;-44
2023/08/13 01:16:58;;;;;;;1.90;1.73;;;;;;;17.39;69.21;93935.50;513675;28;909;-44
2023/08/13 01:17:15;;;;;;;1.85;1.75;;;;;;;17.39;69.16;93931.97;512735;28;1179;-45
2023/08/13 01:17:32;;;;;;;2.08;1.88;;;;;;;17.39;69.30;93938.28;513676;28;934;-44
2023/08/13 01:17:49;;;;;;;2.08;1.88;;;;;;;17.38;69.44;93942.41;511776;28;919;-44
2023/08/13 01:18:07;;;;;;;2.22;1.95;;;;;;;17.38;69.45;93938.88;511528;29;952;-45
2023/08/13 01:18:22;;;;;;;2.33;1.85;;;;;;;17.38;69.42;93938.88;511733;28;943;-45
2023/08/13 01:18:39;;;;;;;2.13;1.73;;;;;;;17.38;69.38;93933.31;511690;28;1143;-44
2023/08/13 01:18:55;;;;;;;2.05;1.77;;;;;;;17.38;69.44;93930.50;511669;29;881;-45
2023/08/13 01:19:12;;;;;;;2.13;1.90;;;;;;;17.38;69.45;93933.31;513158;28;786;-45
2023/08/13 01:19:28;;;;;;;2.28;1.88;;;;;;;17.36;69.66;93936.69;513692;28;805;-47
2023/08/13 01:19:43;;;;;;;2.10;1.70;;;;;;;17.37;69.69;93929.75;513888;28;757;-46
2023/08/13 01:19:59;;;;;;;2.23;1.70;;;;;;;17.38;69.61;93936.09;513124;28;1627;-44
2023/08/13 01:20:15;;;;;;;1.95;1.75;;;;;;;17.38;69.70;93936.09;512723;28;830;-44
2023/08/13 01:20:32;;;;;;;2.20;2.00;;;;;;;17.38;69.95;93941.69;512990;28;868;-45
2023/08/13 01:20:47;;;;;;;2.35;2.08;;;;;;;17.34;69.74;93933.75;511975;28;917;-45
2023/08/13 01:21:02;;;;;;;2.10;1.90;;;;;;;17.37;69.85;93929.03;513399;28;809;-45
2023/08/13 01:21:18;;;;;;;1.90;1.80;;;;;;;17.37;69.70;93938.13;513843;28;881;-45
2023/08/13 01:21:33;;;;;;;1.77;1.67;;;;;;;17.39;69.44;93943.13;513794;28;1104;-45